Time;durP1;ratioP1;P1;durP2;ratioP2;P2;SDS_P1;SDS_P2;PMS_P1;PMS_P2;Temp;Humidity;BMP_temperature;BMP_pressure;BME280_temperature;BME280_humidity;BME280_pressure;Samples;Min_cycle;Max_cycle;Signal;HPM_P1;HPM_P2
2023/06/06 00:00:30;;;;;;;8.20;6.22;;;10.50;99.90;;;;;;5089253;28;20044;-80
2023/06/06 00:02:56;;;;;;;7.72;5.55;;;10.50;99.90;;;;;;5087928;28;20055;-80
2023/06/06 00:05:25;;;;;;;9.82;5.68;;;10.50;99.90;;;;;;5087260;28;20036;-80
2023/06/06 00:07:52;;;;;;;9.50;6.03;;;10.40;99.90;;;;;;5087675;28;20075;-80
2023/06/06 00:10:18;;;;;;;10.05;5.85;;;10.40;99.90;;;;;;5087380;28;20991;-80
2023/06/06 00:12:45;;;;;;;8.35;5.72;;;10.40;99.90;;;;;;5088193;28;20113;-80
2023/06/06 00:15:12;;;;;;;11.80;6.18;;;10.40;99.90;;;;;;5087410;28;20040;-81
2023/06/06 00:17:39;;;;;;;9.77;6.10;;;10.40;99.90;;;;;;5087425;28;20515;-80
2023/06/06 00:20:08;;;;;;;10.90;6.32;;;10.30;99.90;;;;;;5088311;28;20055;-80
2023/06/06 00:22:36;;;;;;;9.52;6.47;;;10.30;99.90;;;;;;5087565;28;20411;-80
2023/06/06 00:25:03;;;;;;;10.90;6.90;;;10.30;99.90;;;;;;5088431;28;20128;-80
2023/06/06 00:27:29;;;;;;;7.90;6.10;;;10.30;99.90;;;;;;5088592;28;20084;-79
2023/06/06 00:29:55;;;;;;;10.52;6.20;;;10.20;99.90;;;;;;5088148;28;20095;-79
2023/06/06 00:32:21;;;;;;;9.85;6.68;;;10.30;99.90;;;;;;5086900;28;20131;-80
2023/06/06 00:34:46;;;;;;;9.88;6.53;;;10.20;99.90;;;;;;5087640;28;20048;-79
2023/06/06 00:37:12;;;;;;;8.63;6.05;;;10.20;99.90;;;;;;5086962;28;20040;-79
2023/06/06 00:39:37;;;;;;;9.93;6.35;;;10.20;99.90;;;;;;5087757;28;20052;-80
2023/06/06 00:42:03;;;;;;;10.18;6.18;;;10.20;99.90;;;;;;5087097;28;20044;-79
2023/06/06 00:44:29;;;;;;;12.25;6.00;;;10.20;99.90;;;;;;5086704;28;20080;-80
2023/06/06 00:46:55;;;;;;;8.32;6.45;;;10.20;99.90;;;;;;5070204;28;20044;-81
2023/06/06 00:49:21;;;;;;;9.30;6.40;;;10.10;99.90;;;;;;5086298;28;20040;-81
2023/06/06 00:51:47;;;;;;;9.05;6.47;;;10.10;99.90;;;;;;5086423;28;20162;-81
2023/06/06 00:54:18;;;;;;;8.48;5.88;;;10.10;99.90;;;;;;5087674;28;20123;-81
2023/06/06 00:56:44;;;;;;;9.50;6.57;;;10.00;99.90;;;;;;5088170;28;20055;-80
2023/06/06 00:59:11;;;;;;;8.95;6.47;;;10.00;99.90;;;;;;5086859;28;20075;-79
2023/06/06 01:01:39;;;;;;;12.55;7.20;;;10.00;99.90;;;;;;5088102;28;20051;-80
2023/06/06 01:04:08;;;;;;;10.77;6.30;;;10.00;99.90;;;;;;5086302;28;20044;-81
2023/06/06 01:06:37;;;;;;;10.90;6.82;;;9.90;99.90;;;;;;5087528;28;20111;-80
2023/06/06 01:09:06;;;;;;;10.15;6.65;;;9.90;99.90;;;;;;5087785;28;20079;-79
2023/06/06 01:11:52;;;;;;;11.93;6.82;;;9.90;99.90;;;;;;5086597;28;20060;-80
2023/06/06 01:14:43;;;;;;;9.70;6.53;;;9.90;99.90;;;;;;5087701;28;20048;-80
2023/06/06 01:17:10;;;;;;;9.32;6.55;;;9.80;99.90;;;;;;5086295;28;20044;-80
2023/06/06 01:19:41;;;;;;;10.80;6.00;;;9.80;99.90;;;;;;5085894;28;20048;-80
2023/06/06 01:22:07;;;;;;;11.55;6.43;;;9.80;99.90;;;;;;5086831;28;20076;-80
2023/06/06 01:24:35;;;;;;;10.07;6.70;;;9.80;99.90;;;;;;5086514;28;20852;-80
2023/06/06 01:27:03;;;;;;;8.18;6.00;;;9.80;99.90;;;;;;5087882;28;20052;-80
2023/06/06 01:29:30;;;;;;;8.52;5.93;;;9.80;99.90;;;;;;5086997;28;20132;-80
2023/06/06 01:32:29;;;;;;;9.10;5.65;;;9.80;99.90;;;;;;5086502;28;20048;-79
2023/06/06 01:35:23;;;;;;;7.65;5.63;;;9.70;99.90;;;;;;5087219;28;20052;-79
2023/06/06 01:38:11;;;;;;;11.35;5.43;;;9.70;99.90;;;;;;5087590;28;20058;-80
2023/06/06 01:40:38;;;;;;;9.75;6.72;;;9.70;99.90;;;;;;5086119;28;20048;-80
2023/06/06 01:43:06;;;;;;;8.13;5.72;;;9.70;99.90;;;;;;5086343;28;20054;-81
2023/06/06 01:45:34;;;;;;;11.82;6.30;;;9.70;99.90;;;;;;5086544;28;20040;-79
2023/06/06 01:48:00;;;;;;;11.38;6.28;;;9.70;99.90;;;;;;5086237;28;20579;-81
2023/06/06 01:50:26;;;;;;;9.55;6.05;;;9.60;99.90;;;;;;5086504;28;20051;-81
2023/06/06 01:52:55;;;;;;;9.88;5.80;;;9.70;99.90;;;;;;5087315;28;20044;-80
2023/06/06 01:55:21;;;;;;;8.07;5.82;;;9.70;99.90;;;;;;5086433;28;20066;-80
2023/06/06 01:57:47;;;;;;;11.77;6.45;;;9.70;99.90;;;;;;5086231;28;20531;-79
2023/06/06 02:00:13;;;;;;;10.10;6.43;;;9.60;99.90;;;;;;5087341;28;20063;-80
2023/06/06 02:02:38;;;;;;;10.40;6.32;;;9.60;99.90;;;;;;5087285;28;20039;-80
2023/06/06 02:05:04;;;;;;;13.75;6.40;;;10.10;99.90;;;;;;5087826;28;20079;-79
2023/06/06 02:07:30;;;;;;;10.68;6.68;;;9.60;99.90;;;;;;5090330;28;20052;-79
2023/06/06 02:09:56;;;;;;;11.23;6.78;;;9.60;99.90;;;;;;5089281;28;20044;-80
2023/06/06 02:12:21;;;;;;;9.05;6.38;;;9.60;99.90;;;;;;5072779;28;20062;-80
2023/06/06 02:14:48;;;;;;;8.50;5.82;;;9.60;99.90;;;;;;5090028;28;20044;-80
2023/06/06 02:17:14;;;;;;;9.57;6.40;;;9.60;99.90;;;;;;5089957;28;20050;-80
2023/06/06 02:19:40;;;;;;;8.77;5.65;;;9.60;99.90;;;;;;5089130;28;20048;-80
2023/06/06 02:22:06;;;;;;;11.88;5.93;;;9.60;99.90;;;;;;5090936;28;20040;-79
2023/06/06 02:24:33;;;;;;;11.10;6.70;;;9.60;99.90;;;;;;5090252;28;20460;-79
2023/06/06 02:26:59;;;;;;;8.63;5.75;;;9.50;99.90;;;;;;5090894;28;20044;-80
2023/06/06 02:29:24;;;;;;;10.43;6.60;;;9.50;99.90;;;;;;5089164;28;20096;-80
2023/06/06 02:31:50;;;;;;;9.52;6.57;;;9.50;99.90;;;;;;5089809;28;20060;-80
2023/06/06 02:34:16;;;;;;;11.10;6.78;;;9.50;99.90;;;;;;5090143;28;20044;-80
2023/06/06 02:36:42;;;;;;;9.02;6.20;;;9.50;99.90;;;;;;5090553;28;20461;-81
2023/06/06 02:39:08;;;;;;;11.82;6.80;;;9.50;99.90;;;;;;5072306;28;20548;-81
2023/06/06 02:41:34;;;;;;;10.27;6.30;;;9.50;99.90;;;;;;5089324;28;20052;-81
2023/06/06 02:44:00;;;;;;;9.35;6.22;;;9.50;99.90;;;;;;5088655;28;20109;-81
2023/06/06 02:46:25;;;;;;;10.40;7.25;;;9.50;99.90;;;;;;5089242;28;20036;-80
2023/06/06 02:48:51;;;;;;;10.13;6.53;;;9.60;99.90;;;;;;5090748;28;20117;-80
2023/06/06 02:51:19;;;;;;;12.13;6.78;;;9.40;99.90;;;;;;5088635;28;20059;-82
2023/06/06 02:53:45;;;;;;;10.88;6.57;;;9.40;99.90;;;;;;5088907;28;20109;-80
2023/06/06 02:56:12;;;;;;;9.95;6.45;;;9.40;99.90;;;;;;5089048;28;20048;-80
2023/06/06 02:58:38;;;;;;;10.52;7.03;;;9.40;99.90;;;;;;5088997;28;20486;-80
2023/06/06 03:01:03;;;;;;;11.40;7.40;;;9.40;99.90;;;;;;5088684;28;20079;-80
2023/06/06 03:03:32;;;;;;;10.27;6.30;;;9.30;99.90;;;;;;5088858;28;20112;-81
2023/06/06 03:06:00;;;;;;;9.60;7.03;;;9.30;99.90;;;;;;5088598;28;20066;-80
2023/06/06 03:08:26;;;;;;;11.73;6.85;;;9.30;99.90;;;;;;5088550;28;20075;-80
2023/06/06 03:10:52;;;;;;;13.45;7.55;;;9.30;99.90;;;;;;5088421;28;20561;-80
2023/06/06 03:13:18;;;;;;;12.38;7.50;;;9.30;99.90;;;;;;5090118;28;20075;-80
2023/06/06 03:15:46;;;;;;;11.20;6.75;;;9.30;99.90;;;;;;5088092;28;20036;-80
2023/06/06 03:18:20;;;;;;;11.80;6.93;;;9.40;99.90;;;;;;5088151;28;20047;-80
2023/06/06 03:20:46;;;;;;;10.18;6.40;;;9.40;99.90;;;;;;5088151;28;20474;-80
2023/06/06 03:23:12;;;;;;;12.13;7.22;;;9.40;99.90;;;;;;5088644;28;20044;-80
2023/06/06 03:25:45;;;;;;;9.75;6.68;;;9.40;99.90;;;;;;5088061;28;20047;-80
2023/06/06 03:28:12;;;;;;;13.00;6.55;;;9.40;99.90;;;;;;5089703;28;20134;-79
2023/06/06 03:30:38;;;;;;;11.90;7.10;;;9.40;99.90;;;;;;5087752;28;20515;-80
2023/06/06 03:33:06;;;;;;;12.75;6.35;;;9.40;99.90;;;;;;5071493;28;20456;-80
2023/06/06 03:35:33;;;;;;;11.10;6.80;;;9.40;99.90;;;;;;5087665;28;20515;-80
2023/06/06 03:37:59;;;;;;;9.55;6.78;;;9.40;99.90;;;;;;5089065;28;20044;-80
2023/06/06 03:40:25;;;;;;;12.45;6.55;;;9.50;99.90;;;;;;5088218;28;20487;-80
2023/06/06 03:42:51;;;;;;;9.38;6.43;;;9.50;99.90;;;;;;5089397;28;20048;-80
2023/06/06 03:45:18;;;;;;;14.18;7.40;;;9.50;99.90;;;;;;5087869;28;20093;-80
2023/06/06 03:47:44;;;;;;;10.18;6.57;;;9.50;99.90;;;;;;5088114;28;20051;-80
2023/06/06 03:50:10;;;;;;;13.73;6.75;;;9.50;99.90;;;;;;5088844;28;20483;-80
2023/06/06 03:52:36;;;;;;;12.43;7.07;;;9.60;99.90;;;;;;5088821;28;20452;-80
2023/06/06 03:55:02;;;;;;;12.55;7.00;;;9.60;99.90;;;;;;5070623;28;20087;-80
2023/06/06 03:57:28;;;;;;;13.80;7.32;;;9.60;99.90;;;;;;5087827;28;20047;-80
2023/06/06 03:59:55;;;;;;;8.95;6.45;;;9.60;99.90;;;;;;5087754;28;20056;-80
2023/06/06 04:02:21;;;;;;;13.13;6.70;;;9.70;99.90;;;;;;5088789;28;20158;-80
2023/06/06 04:04:50;;;;;;;11.93;7.45;;;9.70;99.90;;;;;;5087246;28;20044;-81
2023/06/06 04:07:16;;;;;;;12.38;6.57;;;9.70;99.90;;;;;;5089210;28;20052;-81
2023/06/06 04:09:42;;;;;;;12.25;7.25;;;9.80;99.90;;;;;;5088726;28;20086;-81
2023/06/06 04:12:08;;;;;;;12.00;7.07;;;9.80;99.90;;;;;;5087258;28;20058;-81
2023/06/06 04:14:34;;;;;;;14.48;7.05;;;9.80;99.90;;;;;;5087332;28;20130;-81
2023/06/06 04:17:01;;;;;;;12.00;7.32;;;9.90;99.90;;;;;;5087445;28;20071;-80
2023/06/06 04:19:27;;;;;;;10.23;7.10;;;9.90;99.90;;;;;;5086689;28;20553;-80
2023/06/06 04:21:54;;;;;;;11.05;6.70;;;10.00;99.90;;;;;;5087512;28;20044;-80
2023/06/06 04:24:20;;;;;;;13.07;6.40;;;10.00;99.90;;;;;;5087042;28;20056;-81
2023/06/06 04:26:46;;;;;;;12.18;6.90;;;10.10;99.90;;;;;;5087339;28;20525;-80
2023/06/06 04:29:13;;;;;;;12.52;6.97;;;10.20;99.90;;;;;;5087153;28;20040;-80
2023/06/06 04:31:40;;;;;;;13.95;7.10;;;10.20;99.90;;;;;;5087061;28;20534;-80
2023/06/06 04:34:09;;;;;;;11.48;7.07;;;10.30;99.90;;;;;;5086533;28;20569;-81
2023/06/06 04:36:38;;;;;;;14.93;8.38;;;10.40;99.90;;;;;;5086714;28;20071;-81
2023/06/06 04:39:07;;;;;;;9.15;6.15;;;10.40;99.90;;;;;;5086749;28;20527;-80
2023/06/06 04:41:33;;;;;;;11.55;6.63;;;10.50;99.90;;;;;;5087221;28;20499;-81
2023/06/06 04:44:03;;;;;;;12.32;6.95;;;10.60;99.90;;;;;;5086969;28;20048;-81
2023/06/06 04:46:29;;;;;;;11.85;7.22;;;10.60;99.90;;;;;;5087007;28;20044;-80
2023/06/06 04:48:56;;;;;;;11.30;6.65;;;10.70;99.90;;;;;;5086303;28;20047;-80
2023/06/06 04:51:29;;;;;;;12.27;7.10;;;10.80;99.90;;;;;;5088083;28;20040;-80
2023/06/06 04:54:08;;;;;;;10.70;6.88;;;10.80;99.90;;;;;;5086581;28;20052;-80
2023/06/06 04:56:34;;;;;;;10.05;6.35;;;10.90;99.90;;;;;;5086649;28;20051;-79
2023/06/06 04:59:06;;;;;;;9.98;6.38;;;11.00;99.90;;;;;;5087441;28;20048;-79
2023/06/06 05:01:36;;;;;;;10.85;6.43;;;11.10;99.90;;;;;;5086870;28;20136;-79
2023/06/06 05:04:03;;;;;;;12.85;6.75;;;11.10;99.90;;;;;;5086293;28;20052;-80
2023/06/06 05:06:31;;;;;;;13.90;6.20;;;11.20;99.90;;;;;;5087028;28;20376;-80
2023/06/06 05:08:59;;;;;;;12.73;6.68;;;11.30;99.90;;;;;;5085934;28;20047;-80
2023/06/06 05:11:26;;;;;;;11.07;6.85;;;11.50;99.90;;;;;;5086733;28;20072;-80
2023/06/06 05:13:52;;;;;;;10.80;6.30;;;11.40;99.90;;;;;;5086421;28;20101;-81
2023/06/06 05:16:18;;;;;;;12.05;6.57;;;11.50;99.90;;;;;;5086702;28;20437;-81
2023/06/06 05:18:43;;;;;;;9.52;6.05;;;11.60;99.90;;;;;;5087918;28;20313;-81
2023/06/06 05:21:09;;;;;;;9.02;5.68;;;11.70;99.90;;;;;;5087052;28;20051;-80
2023/06/06 05:23:35;;;;;;;8.77;6.13;;;11.80;99.90;;;;;;5086164;28;20409;-80
2023/06/06 05:26:00;;;;;;;12.55;6.95;;;11.90;99.90;;;;;;5086054;28;20036;-80
2023/06/06 05:28:28;;;;;;;12.75;6.40;;;12.10;99.90;;;;;;5086547;28;20066;-80
2023/06/06 05:30:56;;;;;;;7.90;5.40;;;12.90;99.90;;;;;;5085778;28;20068;-80
2023/06/06 05:33:30;;;;;;;9.95;5.60;;;14.00;99.90;;;;;;5087763;28;20055;-79
2023/06/06 05:35:56;;;;;;;9.73;5.97;;;14.90;99.90;;;;;;5086883;28;20041;-80
2023/06/06 05:38:22;;;;;;;10.30;4.97;;;15.70;99.90;;;;;;5087827;28;20056;-80
2023/06/06 05:40:48;;;;;;;9.90;5.80;;;16.20;99.90;;;;;;5092112;28;20647;-81
2023/06/06 05:43:14;;;;;;;14.02;5.85;;;16.70;99.90;;;;;;5090765;28;20051;-80
2023/06/06 05:45:40;;;;;;;7.82;5.35;;;17.20;99.90;;;;;;5090686;28;20044;-80
2023/06/06 05:48:05;;;;;;;11.18;5.57;;;17.30;99.90;;;;;;5073012;28;20507;-80
2023/06/06 05:50:31;;;;;;;10.55;5.65;;;17.40;99.90;;;;;;5090973;28;20116;-80
2023/06/06 05:52:57;;;;;;;8.70;5.28;;;17.60;99.90;;;;;;5090355;28;20048;-81
2023/06/06 05:55:31;;;;;;;9.00;4.97;;;17.80;99.90;;;;;;5089872;28;20059;-81
2023/06/06 05:57:58;;;;;;;9.20;5.32;;;18.30;99.90;;;;;;5091857;28;20512;-79
2023/06/06 06:00:25;;;;;;;8.27;5.43;;;18.50;99.90;;;;;;5090093;28;20511;-79
2023/06/06 06:02:51;;;;;;;10.25;4.95;;;18.80;99.90;;;;;;5073433;28;20052;-80
2023/06/06 06:05:20;;;;;;;9.80;4.78;;;19.00;99.90;;;;;;5089832;28;20079;-80
2023/06/06 06:07:52;;;;;;;6.38;4.78;;;19.30;99.90;;;;;;5091433;28;20040;-81
2023/06/06 06:10:18;;;;;;;;;;;19.00;99.90;;;;;;5090241;28;20131;-81
2023/06/06 06:12:43;;;;;;;8.85;5.00;;;18.90;99.90;;;;;;5089934;28;20014;-81
2023/06/06 06:15:10;;;;;;;10.85;5.25;;;19.10;99.90;;;;;;5089614;28;20493;-81
2023/06/06 06:17:36;;;;;;;8.80;4.60;;;19.50;99.90;;;;;;5090091;28;20527;-81
2023/06/06 06:20:08;;;;;;;7.90;4.40;;;19.80;99.90;;;;;;5089741;28;20112;-81
2023/06/06 06:22:35;;;;;;;8.32;4.75;;;20.00;99.90;;;;;;5089657;28;20048;-81
2023/06/06 06:25:01;;;;;;;6.68;4.90;;;20.20;99.80;;;;;;5072900;28;20075;-81
2023/06/06 06:27:27;;;;;;;7.13;4.80;;;20.30;98.80;;;;;;5088821;28;20052;-80
2023/06/06 06:29:52;;;;;;;6.88;4.70;;;20.60;98.20;;;;;;5090387;28;20067;-80
2023/06/06 06:32:18;;;;;;;7.60;5.05;;;20.40;97.80;;;;;;5091325;28;20051;-82
2023/06/06 06:34:43;;;;;;;8.40;5.70;;;20.30;97.40;;;;;;5088549;28;20369;-80
2023/06/06 06:37:09;;;;;;;9.02;5.25;;;19.80;97.90;;;;;;5072725;28;20090;-81
2023/06/06 06:39:35;;;;;;;10.68;4.72;;;19.00;99.20;;;;;;5072760;28;20040;-81
2023/06/06 06:42:01;;;;;;;8.57;4.72;;;18.10;99.90;;;;;;5090987;28;20042;-81
2023/06/06 06:44:26;;;;;;;9.02;5.63;;;17.50;99.90;;;;;;5089375;28;20286;-81
2023/06/06 06:46:52;;;;;;;10.63;5.80;;;17.10;99.90;;;;;;5090316;28;20036;-81
2023/06/06 06:49:18;;;;;;;10.13;5.88;;;16.70;99.90;;;;;;5090447;28;20057;-80
2023/06/06 06:51:44;;;;;;;7.47;5.80;;;16.50;99.90;;;;;;5089356;28;20052;-81
2023/06/06 06:54:13;;;;;;;7.63;5.45;;;16.40;99.90;;;;;;5089025;28;20050;-80
2023/06/06 06:56:41;;;;;;;8.65;5.13;;;16.40;99.90;;;;;;5090392;28;20047;-81
2023/06/06 06:59:07;;;;;;;8.40;5.80;;;16.30;99.90;;;;;;5089087;28;20389;-82
2023/06/06 07:01:33;;;;;;;7.72;5.30;;;16.40;99.90;;;;;;5089486;28;20048;-80
2023/06/06 07:03:59;;;;;;;14.05;5.43;;;16.40;99.90;;;;;;5088792;28;20048;-80
2023/06/06 07:06:27;;;;;;;10.65;5.90;;;16.40;99.90;;;;;;5089256;28;20048;-81
2023/06/06 07:08:53;;;;;;;9.15;5.93;;;16.40;99.90;;;;;;5089458;28;20072;-79
2023/06/06 07:11:18;;;;;;;9.48;5.60;;;16.40;99.90;;;;;;5090499;28;20047;-81
2023/06/06 07:13:44;;;;;;;6.28;5.30;;;16.30;99.90;;;;;;5088868;28;20048;-80
2023/06/06 07:16:12;;;;;;;9.93;5.50;;;16.60;99.90;;;;;;5089154;28;20043;-81
2023/06/06 07:18:37;;;;;;;7.50;5.30;;;16.70;99.90;;;;;;5088951;28;20043;-81
2023/06/06 07:21:04;;;;;;;8.60;5.30;;;16.70;99.90;;;;;;5088614;28;20100;-80
2023/06/06 07:23:31;;;;;;;8.27;5.57;;;16.70;99.90;;;;;;5088808;28;20100;-82
2023/06/06 07:25:57;;;;;;;9.30;5.63;;;16.70;99.90;;;;;;5089972;28;20059;-80
2023/06/06 07:28:23;;;;;;;8.70;5.35;;;16.70;99.90;;;;;;5089099;28;20048;-81
2023/06/06 07:30:49;;;;;;;8.00;4.93;;;16.70;99.90;;;;;;5089175;28;20189;-80
2023/06/06 07:33:14;;;;;;;8.88;5.55;;;16.80;99.90;;;;;;5089654;28;20130;-81
2023/06/06 07:35:40;;;;;;;7.13;4.55;;;16.80;99.90;;;;;;5090130;28;20444;-81
2023/06/06 07:38:05;;;;;;;7.38;4.63;;;16.90;99.90;;;;;;5088739;28;20105;-81
2023/06/06 07:40:31;;;;;;;7.07;4.60;;;17.00;99.90;;;;;;5090614;28;20055;-81
2023/06/06 07:42:57;;;;;;;8.57;4.75;;;17.30;99.90;;;;;;5088411;28;20392;-80
2023/06/06 07:45:23;;;;;;;7.75;4.80;;;17.60;99.90;;;;;;5088644;28;20040;-81
2023/06/06 07:47:49;;;;;;;7.65;4.80;;;17.40;99.90;;;;;;5089572;28;20209;-80
2023/06/06 07:50:15;;;;;;;8.45;4.70;;;17.40;99.90;;;;;;5088154;28;20047;-81
2023/06/06 07:52:43;;;;;;;6.22;4.40;;;17.40;99.90;;;;;;5088410;28;20174;-80
2023/06/06 07:55:12;;;;;;;10.68;4.38;;;17.60;99.90;;;;;;5087966;28;20071;-79
2023/06/06 07:57:39;;;;;;;7.72;3.95;;;17.90;99.90;;;;;;5088196;28;20416;-80
2023/06/06 08:00:10;;;;;;;5.30;3.70;;;18.00;99.90;;;;;;5088085;28;20040;-81
2023/06/06 08:02:37;;;;;;;8.63;4.20;;;18.20;99.90;;;;;;5088908;28;20051;-80
2023/06/06 08:05:03;;;;;;;6.97;3.85;;;18.20;99.90;;;;;;5074556;28;20062;-80
2023/06/06 08:07:29;;;;;;;5.68;4.10;;;18.20;99.90;;;;;;5092202;28;20044;-81
2023/06/06 08:09:55;;;;;;;6.35;3.60;;;18.10;99.90;;;;;;5088347;28;20381;-81
2023/06/06 08:12:20;;;;;;;7.53;4.00;;;18.10;99.90;;;;;;5088893;28;20083;-80
2023/06/06 08:14:46;;;;;;;7.03;3.72;;;18.20;99.90;;;;;;5090426;28;20055;-81
2023/06/06 08:17:12;;;;;;;9.80;4.22;;;18.30;99.90;;;;;;5091938;28;20047;-80
2023/06/06 08:19:37;;;;;;;6.50;3.75;;;18.30;99.90;;;;;;5088872;28;20108;-80
2023/06/06 08:22:04;;;;;;;5.28;3.60;;;18.40;99.90;;;;;;5089792;28;20047;-80
2023/06/06 08:24:29;;;;;;;8.10;4.22;;;18.60;99.90;;;;;;5089307;28;20047;-79
2023/06/06 08:26:55;;;;;;;6.72;3.90;;;18.90;99.90;;;;;;5089855;28;20039;-80
2023/06/06 08:29:21;;;;;;;7.20;4.00;;;19.00;99.90;;;;;;5088925;28;20128;-80
2023/06/06 08:31:46;;;;;;;7.63;4.03;;;19.10;99.90;;;;;;5070301;28;20481;-79
2023/06/06 08:34:13;;;;;;;7.38;4.03;;;19.30;99.80;;;;;;5089485;28;20130;-80
2023/06/06 08:36:38;;;;;;;7.25;3.88;;;19.30;99.30;;;;;;5089641;28;20098;-80
2023/06/06 08:39:06;;;;;;;7.68;3.90;;;19.30;99.20;;;;;;5089234;28;20127;-78
2023/06/06 08:41:33;;;;;;;7.25;3.95;;;19.40;98.90;;;;;;5087025;28;20059;-79
2023/06/06 08:44:03;;;;;;;9.02;4.32;;;19.30;98.50;;;;;;5089206;28;20601;-79
2023/06/06 08:46:35;;;;;;;7.47;4.07;;;19.40;98.10;;;;;;5090708;28;20040;-80
2023/06/06 08:49:04;;;;;;;5.82;4.07;;;19.50;97.70;;;;;;5088893;28;20036;-80
2023/06/06 08:51:30;;;;;;;6.72;4.00;;;19.50;97.40;;;;;;5090209;28;20059;-80
2023/06/06 08:53:57;;;;;;;8.15;3.88;;;19.80;97.30;;;;;;5092157;28;20040;-80
2023/06/06 08:56:23;;;;;;;4.88;3.33;;;19.50;96.90;;;;;;5089320;28;20553;-80
2023/06/06 08:58:51;;;;;;;6.63;4.03;;;19.70;96.90;;;;;;5087969;28;20078;-80
2023/06/06 09:01:20;;;;;;;6.53;3.63;;;19.60;96.30;;;;;;5090213;28;20492;-80
2023/06/06 09:03:48;;;;;;;6.82;3.80;;;19.70;95.90;;;;;;5072362;28;20139;-80
2023/06/06 09:06:16;;;;;;;7.22;4.18;;;19.90;96.00;;;;;;5089472;28;20495;-80
2023/06/06 09:08:43;;;;;;;6.85;4.53;;;19.90;95.60;;;;;;5089666;28;20489;-80
2023/06/06 09:11:09;;;;;;;4.68;3.22;;;19.90;95.40;;;;;;5090700;28;20499;-80
2023/06/06 09:13:35;;;;;;;8.35;3.78;;;20.00;95.20;;;;;;5089167;28;20059;-80
2023/06/06 09:16:03;;;;;;;6.78;4.03;;;20.20;95.10;;;;;;5090132;28;21297;-80
2023/06/06 09:18:29;;;;;;;4.88;4.10;;;20.40;94.60;;;;;;5089267;28;20072;-80
2023/06/06 09:20:56;;;;;;;11.05;4.07;;;20.40;94.30;;;;;;5088539;28;20082;-80
2023/06/06 09:23:22;;;;;;;5.63;3.80;;;20.40;93.90;;;;;;5090411;28;20104;-80
2023/06/06 09:25:47;;;;;;;4.53;3.58;;;20.50;93.10;;;;;;5093882;28;20052;-80
2023/06/06 09:28:13;;;;;;;6.80;3.90;;;20.60;92.80;;;;;;5090632;28;20086;-80
2023/06/06 09:30:39;;;;;;;6.72;3.95;;;20.40;92.50;;;;;;5090332;28;20052;-79
2023/06/06 09:33:05;;;;;;;7.00;4.43;;;20.50;92.50;;;;;;5092748;28;20044;-80
2023/06/06 09:35:32;;;;;;;8.27;4.07;;;20.40;92.10;;;;;;5095606;28;20043;-80
2023/06/06 09:38:15;;;;;;;6.07;3.75;;;20.50;92.00;;;;;;5097105;28;20090;-80
2023/06/06 09:40:46;;;;;;;5.13;3.67;;;20.70;91.00;;;;;;5095321;28;20044;-79
2023/06/06 09:43:12;;;;;;;5.63;3.78;;;20.50;90.90;;;;;;5095303;28;20059;-80
2023/06/06 09:45:52;;;;;;;6.43;4.40;;;20.60;91.40;;;;;;5096212;28;20044;-79
2023/06/06 09:48:21;;;;;;;4.85;3.58;;;20.60;90.80;;;;;;5097228;28;20054;-79
2023/06/06 09:50:48;;;;;;;7.82;3.78;;;20.60;91.30;;;;;;5092980;28;20048;-80
2023/06/06 09:53:13;;;;;;;7.25;3.75;;;20.70;91.40;;;;;;5094872;28;20052;-79
2023/06/06 09:55:41;;;;;;;8.30;4.40;;;20.30;90.90;;;;;;5074672;28;20510;-80
2023/06/06 09:58:10;;;;;;;6.45;3.97;;;20.70;90.60;;;;;;5092443;28;20146;-80
2023/06/06 10:00:38;;;;;;;5.30;3.83;;;20.80;90.30;;;;;;5095996;28;20123;-80
2023/06/06 10:03:08;;;;;;;11.10;4.60;;;20.90;90.30;;;;;;5095079;28;20048;-80
2023/06/06 10:05:36;;;;;;;5.85;4.38;;;21.00;89.80;;;;;;5093280;28;20193;-80
2023/06/06 10:08:03;;;;;;;8.93;4.40;;;21.10;88.70;;;;;;5093859;28;20403;-79
2023/06/06 10:10:28;;;;;;;8.32;4.07;;;21.00;88.30;;;;;;5093441;28;20167;-81
2023/06/06 10:12:55;;;;;;;5.88;4.00;;;21.10;88.00;;;;;;5075849;28;20197;-80
2023/06/06 10:15:21;;;;;;;7.78;4.40;;;21.00;87.70;;;;;;5072236;28;20076;-81
2023/06/06 10:17:48;;;;;;;6.32;4.35;;;20.90;87.20;;;;;;5074222;28;20044;-80
2023/06/06 10:20:14;;;;;;;6.57;4.47;;;20.90;87.40;;;;;;5091600;28;20040;-80
2023/06/06 10:22:41;;;;;;;6.60;3.70;;;21.00;87.40;;;;;;5090884;28;20087;-80
2023/06/06 10:25:12;;;;;;;6.40;3.88;;;21.00;86.90;;;;;;5091715;28;20400;-80
2023/06/06 10:28:08;;;;;;;7.40;4.75;;;21.20;86.60;;;;;;5094704;28;20078;-80
2023/06/06 10:30:43;;;;;;;8.20;4.00;;;21.10;83.70;;;;;;5095802;28;20072;-80
2023/06/06 10:33:21;;;;;;;8.82;4.72;;;21.10;83.40;;;;;;5097681;28;20547;-80
2023/06/06 10:35:50;;;;;;;10.23;4.72;;;21.20;85.30;;;;;;5093289;28;20048;-80
2023/06/06 10:38:16;;;;;;;7.22;4.28;;;21.20;84.90;;;;;;5100115;28;20044;-81
2023/06/06 10:40:50;;;;;;;5.50;3.72;;;21.20;84.80;;;;;;5096550;28;20051;-81
2023/06/06 10:43:19;;;;;;;8.43;4.63;;;21.30;84.10;;;;;;5096408;28;20074;-80
2023/06/06 10:45:49;;;;;;;8.50;5.13;;;21.40;83.80;;;;;;5099138;28;20079;-80
2023/06/06 10:48:14;;;;;;;7.95;4.40;;;21.70;84.20;;;;;;5096198;28;20079;-80
2023/06/06 10:50:53;;;;;;;6.72;4.75;;;21.60;83.40;;;;;;5097235;28;20048;-80
2023/06/06 10:53:19;;;;;;;6.40;4.35;;;21.80;82.50;;;;;;5101867;28;20104;-80
2023/06/06 10:55:45;;;;;;;4.90;4.20;;;21.90;82.50;;;;;;5099450;28;20519;-80
2023/06/06 10:58:29;;;;;;;8.00;4.90;;;22.00;81.70;;;;;;5094285;28;20059;-80
2023/06/06 11:01:03;;;;;;;6.32;4.38;;;22.00;80.10;;;;;;5096731;28;20126;-80
2023/06/06 11:03:39;;;;;;;6.43;3.92;;;21.80;80.50;;;;;;5097518;28;20495;-80
2023/06/06 11:06:12;;;;;;;6.00;4.22;;;21.80;79.50;;;;;;5098213;28;20079;-80
2023/06/06 11:08:56;;;;;;;7.50;4.15;;;21.80;80.20;;;;;;5097641;28;20043;-79
2023/06/06 11:11:29;;;;;;;7.47;4.90;;;21.90;78.60;;;;;;5092862;28;20529;-80
2023/06/06 11:14:07;;;;;;;6.68;4.88;;;21.80;79.70;;;;;;5095323;28;20059;-80
2023/06/06 11:16:39;;;;;;;7.85;4.85;;;21.80;79.50;;;;;;5093936;28;20048;-80
2023/06/06 11:19:08;;;;;;;;;;;21.70;79.60;;;;;;5092849;28;20094;-79
2023/06/06 11:21:38;;;;;;;8.20;4.97;;;21.50;79.60;;;;;;5093581;28;20276;-80
2023/06/06 11:24:05;;;;;;;5.80;4.53;;;21.80;80.40;;;;;;5092049;28;20036;-80
2023/06/06 11:26:33;;;;;;;8.30;4.63;;;21.70;80.10;;;;;;5094226;28;20056;-80
2023/06/06 11:28:59;;;;;;;8.32;4.38;;;21.80;79.90;;;;;;5094806;28;20040;-80
2023/06/06 11:31:26;;;;;;;8.90;4.95;;;21.70;79.70;;;;;;5093756;28;20052;-80
2023/06/06 11:34:02;;;;;;;7.35;4.03;;;21.80;79.50;;;;;;5094067;28;20048;-79
2023/06/06 11:36:29;;;;;;;8.15;4.40;;;21.90;79.20;;;;;;5076975;28;20048;-81
2023/06/06 11:38:58;;;;;;;6.20;4.45;;;22.00;78.70;;;;;;5077037;28;20039;-80
2023/06/06 11:41:24;;;;;;;7.28;4.68;;;22.10;77.60;;;;;;5092801;28;20052;-80
2023/06/06 11:43:54;;;;;;;8.77;4.85;;;22.10;77.70;;;;;;5096944;28;20036;-80
2023/06/06 11:46:20;;;;;;;6.30;4.78;;;22.20;77.40;;;;;;5092161;28;20050;-81
2023/06/06 11:48:46;;;;;;;6.45;4.45;;;22.10;77.10;;;;;;5095750;28;20040;-81
2023/06/06 11:51:13;;;;;;;5.15;4.20;;;22.10;77.00;;;;;;5096476;28;20040;-81
2023/06/06 11:53:39;;;;;;;6.90;4.40;;;22.10;77.20;;;;;;5094334;28;20058;-80
2023/06/06 11:56:05;;;;;;;6.88;4.32;;;22.20;77.40;;;;;;5074763;28;20044;-81
2023/06/06 11:58:33;;;;;;;6.53;4.25;;;22.30;77.30;;;;;;5091117;28;20093;-80
2023/06/06 12:00:59;;;;;;;6.60;4.35;;;22.30;77.00;;;;;;5092230;28;20058;-81
2023/06/06 12:03:27;;;;;;;5.72;4.28;;;22.40;76.70;;;;;;5073636;28;20048;-81
2023/06/06 12:06:01;;;;;;;7.85;4.93;;;22.40;76.70;;;;;;5092602;28;20052;-79
2023/06/06 12:08:27;;;;;;;6.45;4.60;;;22.60;76.10;;;;;;5091035;28;20442;-78
2023/06/06 12:10:53;;;;;;;10.02;4.93;;;22.60;76.40;;;;;;5092219;28;20142;-80
2023/06/06 12:13:32;;;;;;;11.27;4.55;;;22.70;75.90;;;;;;5089110;28;20582;-80
2023/06/06 12:15:58;;;;;;;7.45;4.65;;;22.60;75.50;;;;;;5089725;28;20044;-80
2023/06/06 12:18:24;;;;;;;8.73;4.82;;;22.60;75.90;;;;;;5073719;28;20151;-80
2023/06/06 12:20:49;;;;;;;6.50;4.40;;;22.40;75.30;;;;;;5090617;28;20105;-81
2023/06/06 12:23:28;;;;;;;7.50;4.50;;;22.40;75.30;;;;;;5093131;28;20051;-80
2023/06/06 12:25:57;;;;;;;5.63;4.28;;;22.50;74.40;;;;;;5090221;28;20044;-80
2023/06/06 12:28:23;;;;;;;7.18;4.15;;;22.40;75.10;;;;;;5091699;28;20419;-80
2023/06/06 12:30:51;;;;;;;7.53;4.75;;;22.50;74.90;;;;;;5092684;28;20048;-80
2023/06/06 12:33:18;;;;;;;7.25;4.25;;;22.60;74.90;;;;;;5092901;28;20077;-80
2023/06/06 12:35:45;;;;;;;10.38;4.63;;;22.60;74.70;;;;;;5088379;28;20094;-80
2023/06/06 12:38:23;;;;;;;8.23;4.30;;;22.80;74.00;;;;;;5071713;28;20043;-80
2023/06/06 12:40:55;;;;;;;7.03;3.97;;;22.70;73.00;;;;;;5088415;28;20154;-79
2023/06/06 12:43:21;;;;;;;6.28;4.30;;;22.50;73.60;;;;;;5089583;28;20077;-79
2023/06/06 12:45:47;;;;;;;6.53;4.30;;;22.60;73.90;;;;;;5088536;28;20559;-80
2023/06/06 12:48:12;;;;;;;6.18;3.85;;;22.50;73.50;;;;;;5088737;28;20135;-80